createdAt,value
2024-01-24T00:01:44.237Z,2.29
2024-01-24T00:04:12.341Z,2.31
2024-01-24T00:06:41.184Z,2.32
2024-01-24T00:09:10.042Z,2.33
2024-01-24T00:11:38.459Z,2.32
2024-01-24T00:14:06.947Z,2.27
2024-01-24T00:16:35.198Z,2.24
2024-01-24T00:19:03.970Z,2.25
2024-01-24T00:21:32.166Z,2.24
2024-01-24T00:24:00.464Z,2.22
2024-01-24T00:26:28.734Z,2.22
2024-01-24T00:28:57.117Z,2.21
2024-01-24T00:31:25.386Z,2.24
2024-01-24T00:33:54.088Z,2.25
2024-01-24T00:36:23.674Z,2.26
2024-01-24T00:38:52.138Z,2.27
2024-01-24T00:41:20.277Z,2.27
2024-01-24T00:43:48.392Z,2.29
2024-01-24T00:46:16.336Z,2.32
2024-01-24T00:48:44.537Z,2.33
2024-01-24T00:51:13.227Z,2.35
2024-01-24T00:53:41.683Z,2.36
2024-01-24T00:56:09.874Z,2.36
2024-01-24T00:58:38.676Z,2.39
2024-01-24T01:01:06.785Z,2.41
2024-01-24T01:03:34.747Z,2.43
2024-01-24T01:06:02.748Z,2.44
2024-01-24T01:08:30.780Z,2.43
2024-01-24T01:10:59.021Z,2.42
2024-01-24T01:13:26.952Z,2.42
2024-01-24T01:15:54.957Z,2.41
2024-01-24T01:18:23.325Z,2.40
2024-01-24T01:20:51.577Z,2.40
2024-01-24T01:23:19.822Z,2.40
2024-01-24T01:25:47.814Z,2.39
2024-01-24T01:28:16.112Z,2.39
2024-01-24T01:30:44.473Z,2.36
2024-01-24T01:33:12.570Z,2.35
2024-01-24T01:35:40.757Z,2.33
2024-01-24T01:38:08.828Z,2.32
2024-01-24T01:40:37.040Z,2.33
2024-01-24T01:43:12.884Z,2.35
2024-01-24T01:45:41.908Z,2.37
2024-01-24T01:48:12.296Z,2.36
2024-01-24T01:50:41.169Z,2.37
2024-01-24T01:53:09.608Z,2.40
2024-01-24T01:55:38.190Z,2.41
2024-01-24T01:58:06.210Z,2.42
2024-01-24T02:00:34.478Z,2.42
2024-01-24T02:03:02.622Z,2.42
2024-01-24T02:05:31.128Z,2.42
2024-01-24T02:07:59.490Z,2.41
2024-01-24T02:10:27.660Z,2.42
2024-01-24T02:12:55.694Z,2.44
2024-01-24T02:15:23.910Z,2.46
2024-01-24T02:17:51.834Z,2.47
2024-01-24T02:20:21.064Z,2.48
2024-01-24T02:22:49.435Z,2.49
2024-01-24T02:25:17.523Z,2.48
2024-01-24T02:27:47.733Z,2.46
2024-01-24T02:30:16.296Z,2.46
2024-01-24T02:32:44.574Z,2.45
2024-01-24T02:35:12.673Z,2.44
2024-01-24T02:37:40.794Z,2.43
2024-01-24T02:40:09.444Z,2.42
2024-01-24T02:42:37.444Z,2.41
2024-01-24T02:45:07.396Z,2.40
2024-01-24T02:47:35.728Z,2.41
2024-01-24T02:50:05.394Z,2.43
2024-01-24T02:52:33.496Z,2.43
2024-01-24T02:55:01.557Z,2.41
2024-01-24T02:57:29.784Z,2.37
2024-01-24T02:59:58.105Z,2.35
2024-01-24T03:02:26.091Z,2.35
2024-01-24T03:04:54.314Z,2.35
2024-01-24T03:07:22.311Z,2.35
2024-01-24T03:09:50.533Z,2.34
2024-01-24T03:12:18.689Z,2.35
2024-01-24T03:14:46.576Z,2.34
2024-01-24T03:17:14.617Z,2.32
2024-01-24T03:19:43.858Z,2.29
2024-01-24T03:22:12.563Z,2.27
2024-01-24T03:24:40.625Z,2.24
2024-01-24T03:27:08.503Z,2.22
2024-01-24T03:29:36.514Z,2.18
2024-01-24T03:32:04.939Z,2.16
2024-01-24T03:34:33.141Z,2.14
2024-01-24T03:37:01.260Z,2.12
2024-01-24T03:39:29.753Z,2.11
2024-01-24T03:41:57.779Z,2.09
2024-01-24T03:44:25.744Z,2.05
2024-01-24T03:46:53.939Z,2.01
2024-01-24T03:49:22.938Z,1.98
2024-01-24T03:51:51.202Z,1.94
2024-01-24T03:54:19.698Z,1.92
2024-01-24T03:56:47.880Z,1.91
2024-01-24T03:59:16.212Z,1.91
2024-01-24T04:01:44.221Z,1.91
2024-01-24T04:04:12.429Z,1.92
2024-01-24T04:06:40.640Z,1.92
2024-01-24T04:09:09.222Z,1.91
2024-01-24T04:11:39.196Z,1.90
2024-01-24T04:14:09.052Z,1.88
2024-01-24T04:16:40.535Z,1.85
2024-01-24T04:19:09.213Z,1.84
2024-01-24T04:21:46.362Z,1.83
2024-01-24T04:24:14.754Z,1.84
2024-01-24T04:26:43.642Z,1.85
2024-01-24T04:29:13.741Z,1.84
2024-01-24T04:31:43.379Z,1.83
2024-01-24T04:34:11.825Z,1.81
2024-01-24T04:36:39.917Z,1.80
2024-01-24T04:39:08.156Z,1.77
2024-01-24T04:41:40.140Z,1.70
2024-01-24T04:44:09.399Z,1.62
2024-01-24T04:46:37.403Z,1.57
2024-01-24T04:49:05.727Z,1.54
2024-01-24T04:51:33.954Z,1.53
2024-01-24T04:54:02.216Z,1.54
2024-01-24T04:56:30.169Z,1.54
2024-01-24T04:58:58.184Z,1.53
2024-01-24T05:01:26.384Z,1.52
2024-01-24T05:03:54.696Z,1.54
2024-01-24T05:06:22.883Z,1.54
2024-01-24T05:08:52.399Z,1.54
2024-01-24T05:11:20.878Z,1.58
2024-01-24T05:13:49.565Z,1.61
2024-01-24T05:16:17.535Z,1.63
2024-01-24T05:18:45.842Z,1.65
2024-01-24T05:21:14.501Z,1.66
2024-01-24T05:23:43.778Z,1.67
2024-01-24T05:26:12.060Z,1.66
2024-01-24T05:28:41.712Z,1.66
2024-01-24T05:31:10.165Z,1.63
2024-01-24T05:33:38.463Z,1.57
2024-01-24T05:36:07.038Z,1.52
2024-01-24T05:38:35.246Z,1.50
2024-01-24T05:41:03.720Z,1.49
2024-01-24T05:43:31.846Z,1.46
2024-01-24T05:46:00.251Z,1.42
2024-01-24T05:48:28.561Z,1.39
2024-01-24T05:50:56.765Z,1.39
2024-01-24T05:53:24.704Z,1.39
2024-01-24T05:55:52.863Z,1.36
2024-01-24T05:58:21.105Z,1.32
2024-01-24T06:00:49.401Z,1.29
2024-01-24T06:03:17.597Z,1.24
2024-01-24T06:05:46.090Z,1.19
2024-01-24T06:08:14.733Z,1.12
2024-01-24T06:10:42.886Z,1.07
2024-01-24T06:13:11.416Z,1.01
2024-01-24T06:15:39.585Z,0.96
2024-01-24T06:18:07.975Z,0.89
2024-01-24T06:20:35.831Z,0.80
2024-01-24T06:23:03.919Z,0.68
2024-01-24T06:25:32.419Z,0.55
2024-01-24T06:28:00.548Z,0.45
2024-01-24T06:30:30.901Z,0.35
2024-01-24T06:33:00.103Z,0.30
2024-01-24T06:35:28.116Z,0.25
2024-01-24T06:37:56.493Z,0.25
2024-01-24T06:40:24.745Z,0.21
2024-01-24T06:42:52.973Z,0.19
2024-01-24T06:45:21.752Z,0.19
2024-01-24T06:47:50.380Z,0.22
2024-01-24T06:50:19.957Z,0.23
2024-01-24T06:52:48.166Z,0.25
2024-01-24T06:55:18.332Z,0.29
2024-01-24T06:57:46.628Z,0.32
2024-01-24T07:00:15.101Z,0.35
2024-01-24T07:02:43.382Z,0.35
2024-01-24T07:05:11.760Z,0.36
2024-01-24T07:07:39.985Z,0.38
2024-01-24T07:10:13.415Z,0.39
2024-01-24T07:12:47.072Z,0.45
2024-01-24T07:15:17.976Z,0.50
2024-01-24T07:17:46.936Z,0.53
2024-01-24T07:20:17.196Z,0.56
2024-01-24T07:22:45.898Z,0.61
2024-01-24T07:25:13.971Z,0.63
2024-01-24T07:27:42.206Z,0.66
2024-01-24T07:30:10.571Z,0.69
2024-01-24T07:32:42.010Z,0.73
2024-01-24T07:35:10.607Z,0.77
2024-01-24T07:37:38.765Z,0.85
2024-01-24T07:40:15.865Z,0.95
2024-01-24T07:42:44.087Z,1.08
2024-01-24T07:45:12.149Z,1.22
2024-01-24T07:47:40.365Z,1.40
2024-01-24T07:50:09.161Z,1.56
2024-01-24T07:52:41.474Z,1.68
2024-01-24T07:55:12.287Z,1.81
2024-01-24T07:57:42.265Z,1.95
2024-01-24T08:00:17.956Z,2.09
2024-01-24T08:02:49.043Z,2.20
2024-01-24T08:05:20.972Z,2.31
2024-01-24T08:07:49.438Z,2.40
2024-01-24T08:10:18.699Z,2.45
2024-01-24T08:12:47.157Z,2.48
2024-01-24T08:15:15.832Z,2.52
2024-01-24T08:17:44.760Z,2.48
2024-01-24T08:20:13.187Z,2.45
2024-01-24T08:22:41.048Z,2.43
2024-01-24T08:25:09.544Z,2.35
2024-01-24T08:27:37.823Z,2.26
2024-01-24T08:30:07.496Z,2.19
2024-01-24T08:32:41.488Z,2.11
2024-01-24T08:35:10.166Z,2.08
2024-01-24T08:37:38.883Z,2.01
2024-01-24T08:40:09.896Z,1.98
2024-01-24T08:42:39.220Z,1.99
2024-01-24T08:45:07.590Z,2.02
2024-01-24T08:47:35.663Z,2.04
2024-01-24T08:50:05.550Z,2.06
2024-01-24T08:52:34.650Z,2.07
2024-01-24T08:55:03.786Z,2.02
2024-01-24T08:57:32.236Z,2.00
2024-01-24T09:00:00.389Z,2.01
2024-01-24T09:02:29.181Z,2.03
2024-01-24T09:04:57.470Z,2.05
2024-01-24T09:07:25.673Z,2.04
2024-01-24T09:09:54.114Z,2.05
2024-01-24T09:12:23.073Z,2.08
2024-01-24T09:14:51.447Z,2.14
2024-01-24T09:17:20.351Z,2.16
2024-01-24T09:19:49.409Z,2.10
2024-01-24T09:22:18.168Z,2.03
2024-01-24T09:24:46.565Z,1.99
2024-01-24T09:27:18.305Z,1.94
2024-01-24T09:29:46.245Z,1.88
2024-01-24T09:32:14.210Z,1.86
2024-01-24T09:34:44.527Z,1.84
2024-01-24T09:37:13.051Z,1.83
2024-01-24T09:39:41.052Z,1.84
2024-01-24T09:42:21.781Z,1.87
2024-01-24T09:44:50.922Z,1.88
2024-01-24T09:47:22.345Z,1.87
2024-01-24T09:49:51.472Z,1.89
2024-01-24T09:52:25.280Z,1.89
2024-01-24T09:55:02.208Z,1.90
2024-01-24T09:57:30.388Z,1.87
2024-01-24T09:59:58.630Z,1.88
2024-01-24T10:02:29.977Z,1.88
2024-01-24T10:05:00.550Z,1.84
2024-01-24T10:07:29.728Z,1.81
2024-01-24T10:10:09.328Z,1.80
2024-01-24T10:12:38.104Z,1.81
2024-01-24T10:15:06.925Z,1.84
2024-01-24T10:17:35.374Z,1.84
2024-01-24T10:20:07.858Z,1.84
2024-01-24T10:22:36.043Z,1.85
2024-01-24T10:25:04.401Z,1.84
2024-01-24T10:27:34.859Z,1.86
2024-01-24T10:30:03.915Z,1.89
2024-01-24T10:32:32.779Z,1.90
2024-01-24T10:35:05.161Z,2.01
2024-01-24T10:37:34.454Z,2.05
2024-01-24T10:40:13.158Z,2.02
2024-01-24T10:42:44.548Z,1.97
2024-01-24T10:45:16.600Z,1.96
2024-01-24T10:47:46.505Z,1.93
2024-01-24T10:50:16.167Z,1.92
2024-01-24T10:52:45.258Z,1.95
2024-01-24T10:55:14.948Z,1.95
2024-01-24T10:57:44.090Z,1.98
2024-01-24T11:00:18.212Z,1.99
2024-01-24T11:02:46.289Z,1.99
2024-01-24T11:05:22.838Z,2.02
2024-01-24T11:08:07.086Z,2.03
2024-01-24T11:10:40.169Z,2.04
2024-01-24T11:13:08.420Z,2.03
2024-01-24T11:15:36.927Z,2.05
2024-01-24T11:18:32.291Z,2.06
2024-01-24T11:21:01.447Z,2.09
2024-01-24T11:23:46.671Z,2.11
2024-01-24T11:26:17.762Z,2.09
2024-01-24T11:28:49.024Z,2.10
2024-01-24T11:31:38.138Z,2.13
2024-01-24T11:34:14.208Z,2.14
2024-01-24T11:36:51.897Z,2.15
2024-01-24T11:39:33.294Z,2.17
2024-01-24T11:42:27.353Z,2.22
2024-01-24T11:44:56.203Z,2.29
2024-01-24T11:47:24.869Z,2.36
2024-01-24T11:49:53.480Z,2.42
2024-01-24T11:52:22.672Z,2.47
2024-01-24T11:54:54.855Z,2.53
2024-01-24T11:57:23.346Z,2.58
2024-01-24T11:59:51.843Z,2.61
2024-01-24T12:02:20.542Z,2.63
2024-01-24T12:04:54.739Z,2.64
2024-01-24T12:07:22.817Z,2.69
2024-01-24T12:09:51.675Z,2.74
2024-01-24T12:12:20.659Z,2.80
2024-01-24T12:14:49.213Z,2.86
2024-01-24T12:17:18.091Z,2.93
2024-01-24T12:19:46.840Z,2.99
2024-01-24T12:22:16.799Z,3.04
2024-01-24T12:24:45.239Z,3.17
2024-01-24T12:27:13.411Z,3.28
2024-01-24T12:29:43.488Z,3.30
2024-01-24T12:32:11.750Z,3.32
2024-01-24T12:34:40.242Z,3.32
2024-01-24T12:37:08.707Z,3.34
2024-01-24T12:39:37.015Z,3.34
2024-01-24T12:42:05.684Z,3.36
2024-01-24T12:44:35.835Z,3.38
2024-01-24T12:47:05.152Z,3.40
2024-01-24T12:49:33.301Z,3.42
2024-01-24T12:52:02.821Z,3.44
2024-01-24T12:54:31.672Z,3.46
2024-01-24T12:56:59.820Z,3.50
2024-01-24T12:59:30.289Z,3.53
2024-01-24T13:01:59.135Z,3.56
2024-01-24T13:04:27.394Z,3.60
2024-01-24T13:06:56.368Z,3.62
2024-01-24T13:09:24.825Z,3.65
2024-01-24T13:11:53.204Z,3.68
2024-01-24T13:14:21.212Z,3.70
2024-01-24T13:16:50.133Z,3.73
2024-01-24T13:19:18.932Z,3.75
2024-01-24T13:21:47.003Z,3.76
2024-01-24T13:24:15.801Z,3.77
2024-01-24T13:26:45.297Z,3.78
2024-01-24T13:29:13.700Z,3.78
2024-01-24T13:31:42.679Z,3.78
2024-01-24T13:34:12.330Z,3.78
2024-01-24T13:36:41.819Z,3.79
2024-01-24T13:39:13.568Z,3.82
2024-01-24T13:41:45.303Z,3.83
2024-01-24T13:44:14.396Z,3.85
2024-01-24T13:46:42.836Z,3.87
2024-01-24T13:49:11.387Z,3.91
2024-01-24T13:51:43.328Z,3.95
2024-01-24T13:54:13.313Z,3.98
2024-01-24T13:56:41.532Z,4.01
2024-01-24T13:59:10.927Z,4.02
2024-01-24T14:01:45.256Z,4.03
2024-01-24T14:04:16.741Z,4.05
2024-01-24T14:06:45.401Z,4.07
2024-01-24T14:09:14.705Z,4.07
2024-01-24T14:11:43.293Z,4.08
2024-01-24T14:14:12.265Z,4.10
2024-01-24T14:16:40.285Z,4.12
2024-01-24T14:19:09.146Z,4.12
2024-01-24T14:21:37.496Z,4.13
2024-01-24T14:24:05.706Z,4.14
2024-01-24T14:26:34.336Z,4.12
2024-01-24T14:29:02.386Z,4.12
2024-01-24T14:31:32.135Z,4.10
2024-01-24T14:34:02.171Z,4.06
2024-01-24T14:36:34.935Z,4.01
2024-01-24T14:39:05.786Z,3.98
2024-01-24T14:41:33.724Z,3.94
2024-01-24T14:44:01.662Z,3.92
2024-01-24T14:46:29.545Z,3.89
2024-01-24T14:48:58.216Z,3.88
2024-01-24T14:51:26.448Z,3.86
2024-01-24T14:53:54.651Z,3.84
2024-01-24T14:56:22.632Z,3.85
2024-01-24T14:58:51.067Z,3.85
2024-01-24T15:01:20.553Z,3.86
2024-01-24T15:03:50.066Z,3.87
2024-01-24T15:06:19.100Z,3.89
2024-01-24T15:08:46.970Z,3.91
2024-01-24T15:11:15.090Z,3.92
2024-01-24T15:13:43.101Z,3.93
2024-01-24T15:16:11.472Z,3.94
2024-01-24T15:18:42.374Z,3.94
2024-01-24T15:21:13.532Z,3.92
2024-01-24T15:23:42.694Z,3.92
2024-01-24T15:26:11.559Z,3.92
2024-01-24T15:28:40.682Z,3.92
2024-01-24T15:31:09.174Z,3.93
2024-01-24T15:33:37.565Z,3.92
2024-01-24T15:36:06.241Z,3.91
2024-01-24T15:38:34.665Z,3.90
2024-01-24T15:41:05.011Z,3.90
2024-01-24T15:43:38.612Z,3.89
2024-01-24T15:46:08.191Z,3.89
2024-01-24T15:48:36.489Z,3.95
2024-01-24T15:51:05.858Z,4.02
2024-01-24T15:53:34.971Z,4.01
2024-01-24T15:56:03.591Z,3.98
2024-01-24T15:58:31.824Z,3.97
2024-01-24T16:01:00.026Z,3.95
2024-01-24T16:03:33.622Z,3.94
2024-01-24T16:06:02.973Z,3.93
2024-01-24T16:08:31.246Z,3.93
2024-01-24T16:11:00.901Z,3.93
2024-01-24T16:13:29.257Z,3.92
2024-01-24T16:15:57.570Z,3.91
2024-01-24T16:18:25.803Z,3.91
2024-01-24T16:20:53.802Z,3.90
2024-01-24T16:23:21.698Z,3.88
2024-01-24T16:25:51.014Z,3.86
2024-01-24T16:28:19.133Z,3.84
2024-01-24T16:30:48.007Z,3.83
2024-01-24T16:33:16.053Z,3.82
2024-01-24T16:35:44.339Z,3.79
2024-01-24T16:38:12.721Z,3.79
2024-01-24T16:40:40.904Z,3.78
2024-01-24T16:43:09.079Z,3.77
2024-01-24T16:45:37.411Z,3.76
2024-01-24T16:48:05.913Z,3.72
2024-01-24T16:50:34.067Z,3.70
2024-01-24T16:53:02.344Z,3.70
2024-01-24T16:55:31.727Z,3.70
2024-01-24T16:58:00.089Z,3.69
2024-01-24T17:00:28.288Z,3.67
2024-01-24T17:02:58.587Z,3.67
2024-01-24T17:05:27.230Z,3.67
2024-01-24T17:07:55.102Z,3.69
2024-01-24T17:10:23.151Z,3.71
2024-01-24T17:12:51.387Z,3.73
2024-01-24T17:15:19.847Z,3.76
2024-01-24T17:17:48.136Z,3.81
2024-01-24T17:20:16.407Z,3.81
2024-01-24T17:22:44.392Z,3.81
2024-01-24T17:25:14.473Z,3.82
2024-01-24T17:27:42.601Z,3.83
2024-01-24T17:30:11.867Z,3.82
2024-01-24T17:32:39.975Z,3.82
2024-01-24T17:35:08.224Z,3.84
2024-01-24T17:37:36.658Z,3.85
2024-01-24T17:40:06.028Z,3.86
2024-01-24T17:42:34.069Z,3.89
2024-01-24T17:45:02.357Z,3.90
2024-01-24T17:47:31.576Z,3.93
2024-01-24T17:50:01.717Z,3.96
2024-01-24T17:52:30.014Z,4.02
2024-01-24T17:55:01.898Z,4.09
2024-01-24T17:57:31.133Z,4.12
2024-01-24T18:00:03.562Z,4.15
2024-01-24T18:02:33.545Z,4.16
2024-01-24T18:05:02.379Z,4.18
2024-01-24T18:07:31.601Z,4.22
2024-01-24T18:10:03.527Z,4.24
2024-01-24T18:12:32.524Z,4.23
2024-01-24T18:15:00.695Z,4.22
2024-01-24T18:17:29.070Z,4.21
2024-01-24T18:19:57.283Z,4.20
2024-01-24T18:22:25.363Z,4.20
2024-01-24T18:24:53.535Z,4.21
2024-01-24T18:27:21.458Z,4.22
2024-01-24T18:29:53.550Z,4.22
2024-01-24T18:32:21.856Z,4.21
2024-01-24T18:34:50.713Z,4.21
2024-01-24T18:37:19.433Z,4.21
2024-01-24T18:39:48.977Z,4.20
2024-01-24T18:42:17.027Z,4.21
2024-01-24T18:44:44.995Z,4.22
2024-01-24T18:47:13.302Z,4.23
2024-01-24T18:49:41.535Z,4.23
2024-01-24T18:52:09.567Z,4.23
2024-01-24T18:54:37.940Z,4.26
2024-01-24T18:57:06.431Z,4.29
2024-01-24T18:59:34.546Z,4.29
2024-01-24T19:02:02.822Z,4.28
2024-01-24T19:04:31.157Z,4.27
2024-01-24T19:06:59.614Z,4.27
2024-01-24T19:09:27.836Z,4.28
2024-01-24T19:11:57.492Z,4.26
2024-01-24T19:14:25.945Z,4.25
2024-01-24T19:16:54.216Z,4.22
2024-01-24T19:19:24.525Z,4.20
2024-01-24T19:21:54.544Z,4.18
2024-01-24T19:24:22.700Z,4.17
2024-01-24T19:26:50.621Z,4.18
2024-01-24T19:29:19.875Z,4.19
2024-01-24T19:31:49.670Z,4.18
2024-01-24T19:34:22.414Z,4.18
2024-01-24T19:36:51.728Z,4.20
2024-01-24T19:39:19.648Z,4.25
2024-01-24T19:41:48.048Z,4.29
2024-01-24T19:44:18.228Z,4.31
2024-01-24T19:46:46.330Z,4.31
2024-01-24T19:49:15.122Z,4.30
2024-01-24T19:51:43.150Z,4.29
2024-01-24T19:54:12.566Z,4.28
2024-01-24T19:56:40.818Z,4.26
2024-01-24T19:59:08.752Z,4.23
2024-01-24T20:01:37.349Z,4.23
2024-01-24T20:04:05.944Z,4.27
2024-01-24T20:06:38.283Z,4.31
2024-01-24T20:09:06.341Z,4.30
2024-01-24T20:11:34.335Z,4.26
2024-01-24T20:14:04.652Z,4.23
2024-01-24T20:16:32.800Z,4.19
2024-01-24T20:19:00.927Z,4.17
2024-01-24T20:21:30.107Z,4.13
2024-01-24T20:23:58.652Z,4.10
2024-01-24T20:26:27.008Z,4.08
2024-01-24T20:28:55.287Z,4.06
2024-01-24T20:31:23.214Z,4.02
2024-01-24T20:33:51.712Z,3.99
2024-01-24T20:36:22.043Z,3.94
2024-01-24T20:38:50.184Z,3.92
2024-01-24T20:41:19.587Z,3.90
2024-01-24T20:43:47.904Z,3.90
2024-01-24T20:46:16.227Z,3.90
2024-01-24T20:48:44.652Z,3.92
2024-01-24T20:51:12.751Z,3.94
2024-01-24T20:53:41.083Z,3.95
2024-01-24T20:56:08.984Z,3.96
2024-01-24T20:58:37.346Z,3.96
2024-01-24T21:01:06.014Z,3.98
2024-01-24T21:03:34.616Z,3.98
2024-01-24T21:06:02.991Z,3.99
2024-01-24T21:08:31.441Z,4.00
2024-01-24T21:11:03.397Z,4.01
2024-01-24T21:13:32.439Z,4.04
2024-01-24T21:16:02.182Z,4.06
2024-01-24T21:18:30.949Z,4.08
2024-01-24T21:20:59.525Z,4.10
2024-01-24T21:23:27.566Z,4.11
2024-01-24T21:25:55.769Z,4.10
2024-01-24T21:28:23.596Z,4.07
2024-01-24T21:30:51.955Z,4.05
2024-01-24T21:33:20.060Z,4.03
2024-01-24T21:35:48.006Z,4.02
2024-01-24T21:38:16.568Z,4.00
2024-01-24T21:40:44.720Z,3.99
2024-01-24T21:43:12.856Z,4.01
2024-01-24T21:45:40.986Z,4.02
2024-01-24T21:48:09.325Z,4.03
2024-01-24T21:50:37.214Z,4.04
2024-01-24T21:53:05.582Z,4.07
2024-01-24T21:55:33.641Z,4.09
2024-01-24T21:58:01.701Z,4.08
2024-01-24T22:00:30.881Z,4.08
2024-01-24T22:02:59.171Z,4.09
2024-01-24T22:05:27.245Z,4.10
2024-01-24T22:07:56.311Z,4.09
2024-01-24T22:10:24.603Z,4.09
2024-01-24T22:12:52.889Z,4.09
2024-01-24T22:15:21.029Z,4.08
2024-01-24T22:17:49.352Z,4.07
2024-01-24T22:20:17.819Z,4.07
2024-01-24T22:22:45.967Z,4.10
2024-01-24T22:25:14.002Z,4.13
2024-01-24T22:27:42.157Z,4.16
2024-01-24T22:30:10.859Z,4.17
2024-01-24T22:32:39.331Z,4.18
2024-01-24T22:35:07.924Z,4.17
2024-01-24T22:37:36.192Z,4.16
2024-01-24T22:40:06.052Z,4.16
2024-01-24T22:42:34.463Z,4.13
2024-01-24T22:45:02.836Z,4.10
2024-01-24T22:47:31.192Z,4.07
2024-01-24T22:49:59.808Z,4.04
2024-01-24T22:52:28.048Z,4.03
2024-01-24T22:54:56.448Z,4.02
2024-01-24T22:57:24.395Z,4.00
2024-01-24T22:59:52.590Z,3.99
2024-01-24T23:02:21.263Z,3.97
2024-01-24T23:04:49.497Z,3.95
2024-01-24T23:07:18.776Z,3.92
2024-01-24T23:09:47.310Z,3.88
2024-01-24T23:12:15.356Z,3.86
2024-01-24T23:14:43.355Z,3.83
2024-01-24T23:17:11.644Z,3.81
2024-01-24T23:19:39.823Z,3.81
2024-01-24T23:22:08.754Z,3.79
2024-01-24T23:24:36.656Z,3.79
2024-01-24T23:27:04.980Z,3.77
2024-01-24T23:29:33.272Z,3.76
2024-01-24T23:32:01.237Z,3.75
2024-01-24T23:34:29.665Z,3.75
2024-01-24T23:36:57.953Z,3.76
2024-01-24T23:39:26.061Z,3.76
2024-01-24T23:41:54.424Z,3.75
2024-01-24T23:44:22.607Z,3.74
2024-01-24T23:46:50.441Z,3.72
2024-01-24T23:49:19.273Z,3.71
2024-01-24T23:51:47.741Z,3.67
2024-01-24T23:54:16.428Z,3.63
2024-01-24T23:56:44.548Z,3.62
2024-01-24T23:59:12.987Z,3.61
